createdAt,value
2023-10-26T00:01:26.696Z,11.57
2023-10-26T00:03:54.928Z,11.61
2023-10-26T00:06:23.165Z,11.61
2023-10-26T00:08:51.628Z,11.63
2023-10-26T00:11:19.848Z,11.57
2023-10-26T00:13:48.230Z,11.54
2023-10-26T00:16:16.399Z,11.51
2023-10-26T00:18:46.014Z,11.51
2023-10-26T00:21:14.445Z,11.56
2023-10-26T00:23:42.561Z,11.62
2023-10-26T00:26:10.740Z,11.62
2023-10-26T00:28:38.844Z,11.66
2023-10-26T00:31:06.909Z,11.65
2023-10-26T00:33:35.145Z,11.63
2023-10-26T00:36:05.086Z,11.59
2023-10-26T00:38:33.312Z,11.56
2023-10-26T00:41:01.523Z,11.54
2023-10-26T00:43:29.633Z,11.53
2023-10-26T00:45:57.931Z,11.54
2023-10-26T00:48:26.264Z,11.54
2023-10-26T00:50:54.762Z,11.54
2023-10-26T00:53:24.370Z,11.52
2023-10-26T00:55:54.094Z,11.48
2023-10-26T00:58:23.610Z,11.46
2023-10-26T01:00:52.188Z,11.46
2023-10-26T01:03:21.060Z,11.45
2023-10-26T01:05:49.745Z,11.42
2023-10-26T01:08:17.992Z,11.40
2023-10-26T01:10:48.813Z,11.40
2023-10-26T01:13:17.044Z,11.34
2023-10-26T01:15:45.186Z,11.33
2023-10-26T01:18:13.664Z,11.26
2023-10-26T01:20:43.927Z,11.24
2023-10-26T01:23:13.554Z,11.21
2023-10-26T01:25:41.853Z,11.16
2023-10-26T01:28:10.062Z,11.09
2023-10-26T01:30:38.203Z,11.01
2023-10-26T01:33:06.458Z,10.92
2023-10-26T01:35:39.971Z,10.90
2023-10-26T01:38:08.177Z,10.90
2023-10-26T01:40:37.693Z,10.86
2023-10-26T01:43:05.868Z,10.79
2023-10-26T01:45:34.155Z,10.76
2023-10-26T01:48:04.302Z,10.73
2023-10-26T01:50:33.933Z,10.75
2023-10-26T01:53:02.093Z,10.78
2023-10-26T01:55:30.259Z,11.00
2023-10-26T01:58:00.295Z,11.16
2023-10-26T02:00:28.481Z,11.20
2023-10-26T02:02:57.498Z,11.24
2023-10-26T02:05:26.673Z,11.22
2023-10-26T02:07:55.061Z,11.26
2023-10-26T02:10:25.168Z,11.21
2023-10-26T02:12:53.365Z,11.20
2023-10-26T02:15:23.006Z,11.19
2023-10-26T02:17:51.528Z,11.19
2023-10-26T02:20:19.977Z,11.19
2023-10-26T02:22:49.201Z,11.18
2023-10-26T02:25:17.730Z,11.16
2023-10-26T02:27:45.958Z,11.11
2023-10-26T02:30:15.314Z,11.08
2023-10-26T02:32:45.176Z,11.00
2023-10-26T02:35:13.463Z,10.96
2023-10-26T02:37:41.892Z,10.94
2023-10-26T02:40:11.280Z,10.86
2023-10-26T02:42:40.551Z,10.83
2023-10-26T02:45:10.286Z,10.78
2023-10-26T02:47:40.244Z,10.75
2023-10-26T02:50:11.150Z,10.70
2023-10-26T02:52:39.586Z,10.63
2023-10-26T02:55:08.934Z,10.59
2023-10-26T02:57:37.288Z,10.56
2023-10-26T03:00:07.463Z,10.55
2023-10-26T03:02:35.752Z,10.48
2023-10-26T03:05:04.186Z,10.42
2023-10-26T03:07:34.655Z,10.40
2023-10-26T03:10:03.138Z,10.45
2023-10-26T03:12:31.432Z,10.55
2023-10-26T03:14:59.722Z,10.55
2023-10-26T03:17:27.990Z,10.56
2023-10-26T03:19:56.310Z,10.58
2023-10-26T03:22:24.491Z,10.58
2023-10-26T03:24:54.367Z,10.53
2023-10-26T03:27:22.634Z,10.48
2023-10-26T03:29:50.773Z,10.41
2023-10-26T03:32:18.969Z,10.38
2023-10-26T03:34:47.128Z,10.32
2023-10-26T03:37:15.271Z,10.27
2023-10-26T03:39:43.595Z,10.29
2023-10-26T03:42:13.191Z,10.27
2023-10-26T03:44:41.509Z,10.23
2023-10-26T03:47:10.004Z,10.22
2023-10-26T03:49:39.167Z,10.24
2023-10-26T03:52:07.976Z,10.22
2023-10-26T03:54:37.303Z,10.20
2023-10-26T03:57:06.524Z,10.17
2023-10-26T03:59:36.067Z,10.18
2023-10-26T04:02:04.447Z,10.11
2023-10-26T04:04:32.791Z,10.10
2023-10-26T04:07:01.165Z,10.12
2023-10-26T04:09:31.887Z,10.06
2023-10-26T04:12:00.024Z,10.04
2023-10-26T04:14:28.207Z,9.97
2023-10-26T04:16:57.818Z,9.96
2023-10-26T04:19:25.981Z,9.98
2023-10-26T04:21:54.167Z,9.98
2023-10-26T04:24:22.377Z,10.01
2023-10-26T04:26:50.661Z,10.04
2023-10-26T04:29:18.864Z,10.01
2023-10-26T04:31:47.123Z,10.02
2023-10-26T04:34:16.731Z,10.01
2023-10-26T04:36:45.000Z,10.07
2023-10-26T04:39:14.873Z,10.04
2023-10-26T04:41:43.004Z,10.05
2023-10-26T04:44:11.199Z,10.10
2023-10-26T04:46:39.361Z,10.14
2023-10-26T04:49:07.507Z,10.22
2023-10-26T04:51:37.154Z,10.31
2023-10-26T04:54:05.351Z,10.34
2023-10-26T04:56:38.911Z,10.45
2023-10-26T04:59:07.221Z,10.46
2023-10-26T05:01:35.452Z,10.51
2023-10-26T05:04:03.577Z,10.58
2023-10-26T05:06:32.280Z,10.62
2023-10-26T05:09:03.519Z,10.69
2023-10-26T05:11:31.871Z,10.72
2023-10-26T05:14:00.177Z,10.79
2023-10-26T05:16:28.488Z,10.85
2023-10-26T05:18:56.929Z,10.91
2023-10-26T05:21:25.520Z,11.00
2023-10-26T05:23:53.700Z,11.03
2023-10-26T05:26:23.308Z,11.07
2023-10-26T05:28:51.632Z,11.06
2023-10-26T05:31:19.755Z,11.07
2023-10-26T05:33:48.487Z,11.01
2023-10-26T05:36:17.256Z,11.02
2023-10-26T11:34:22.145Z,17.99
2023-10-26T11:36:51.815Z,18.03
2023-10-26T11:39:20.255Z,18.09
2023-10-26T11:41:55.399Z,18.15
2023-10-26T11:44:27.764Z,18.18
2023-10-26T11:46:59.538Z,18.24
2023-10-26T11:49:39.478Z,18.25
2023-10-26T11:52:09.226Z,18.33
2023-10-26T11:54:37.482Z,18.36
2023-10-26T11:57:05.943Z,18.36
2023-10-26T11:59:34.066Z,18.29
2023-10-26T12:02:02.289Z,18.33
2023-10-26T12:04:30.540Z,18.38
2023-10-26T12:07:00.807Z,18.48
2023-10-26T12:09:30.321Z,18.58
2023-10-26T12:11:58.539Z,18.62
2023-10-26T12:14:26.795Z,18.67
2023-10-26T12:16:54.982Z,18.85
2023-10-26T12:19:23.498Z,18.91
2023-10-26T12:21:55.236Z,19.03
2023-10-26T12:24:24.646Z,19.02
2023-10-26T12:27:02.000Z,19.28
2023-10-26T12:29:30.477Z,19.19
2023-10-26T12:31:59.488Z,19.19
2023-10-26T12:34:27.692Z,19.31
2023-10-26T12:36:55.922Z,19.35
2023-10-26T12:39:24.188Z,19.37
2023-10-26T12:41:52.376Z,19.41
2023-10-26T12:44:22.812Z,19.49
2023-10-26T12:46:51.607Z,19.49
2023-10-26T12:49:20.133Z,19.39
2023-10-26T12:51:48.444Z,19.35
2023-10-26T12:54:16.784Z,19.27
2023-10-26T12:56:45.080Z,19.24
2023-10-26T12:59:13.433Z,19.32
2023-10-26T13:01:42.967Z,19.15
2023-10-26T13:04:11.196Z,19.24
2023-10-26T13:06:39.914Z,19.34
2023-10-26T13:09:08.374Z,19.29
2023-10-26T13:11:36.611Z,19.25
2023-10-26T13:14:07.087Z,19.20
2023-10-26T13:16:49.387Z,19.16
2023-10-26T13:19:24.943Z,19.25
2023-10-26T13:21:53.313Z,19.30
2023-10-26T13:24:21.563Z,19.39
2023-10-26T13:26:49.786Z,19.37
2023-10-26T13:29:17.982Z,19.32
2023-10-26T13:31:46.211Z,19.42
2023-10-26T13:34:14.590Z,19.18
2023-10-26T13:36:44.257Z,19.04
2023-10-26T13:39:12.433Z,19.02
2023-10-26T13:41:40.599Z,18.98
2023-10-26T13:44:08.789Z,18.91
2023-10-26T13:46:37.041Z,18.77
2023-10-26T13:49:05.306Z,18.64
2023-10-26T13:51:33.564Z,18.50
2023-10-26T13:54:04.198Z,18.42
2023-10-26T13:56:32.382Z,18.38
2023-10-26T13:59:00.748Z,18.39
2023-10-26T14:01:29.200Z,18.24
2023-10-26T14:03:57.727Z,18.09
2023-10-26T14:06:26.653Z,17.89
2023-10-26T14:08:59.285Z,17.74
2023-10-26T14:11:31.101Z,17.61
2023-10-26T14:13:59.249Z,17.46
2023-10-26T14:16:30.411Z,17.32
2023-10-26T14:19:00.677Z,17.22
2023-10-26T14:21:29.285Z,17.15
2023-10-26T14:23:57.547Z,17.10
2023-10-26T14:26:25.724Z,16.96
2023-10-26T14:28:55.302Z,16.90
2023-10-26T14:31:23.579Z,16.80
2023-10-26T14:33:53.273Z,16.72
2023-10-26T14:36:22.475Z,16.63
2023-10-26T14:38:51.844Z,16.56
2023-10-26T14:41:20.480Z,16.49
2023-10-26T14:43:51.051Z,16.42
2023-10-26T14:46:20.602Z,16.37
2023-10-26T14:48:48.852Z,16.31
2023-10-26T14:51:17.040Z,16.25
2023-10-26T14:53:45.165Z,16.12
2023-10-26T14:56:13.849Z,16.02
2023-10-26T14:58:41.924Z,15.96
2023-10-26T15:01:13.356Z,15.88
2023-10-26T15:03:43.537Z,15.83
2023-10-26T15:06:12.088Z,15.82
2023-10-26T15:08:40.353Z,15.75
2023-10-26T15:11:22.961Z,15.70
2023-10-26T15:13:52.660Z,15.68
2023-10-26T15:16:21.013Z,15.68
2023-10-26T15:18:50.701Z,15.65
2023-10-26T15:21:18.995Z,15.60
2023-10-26T15:23:47.112Z,15.52
2023-10-26T15:26:15.269Z,15.43
2023-10-26T15:28:43.487Z,15.34
2023-10-26T15:31:12.916Z,15.30
2023-10-26T15:33:41.253Z,15.19
2023-10-26T15:36:11.216Z,15.15
2023-10-26T15:38:42.424Z,15.09
2023-10-26T15:41:11.856Z,14.97
2023-10-26T15:43:40.070Z,14.85
2023-10-26T15:46:08.452Z,14.70
2023-10-26T15:49:33.334Z,14.58
2023-10-26T15:51:27.289Z,14.50
2023-10-26T15:53:55.700Z,14.45
2023-10-26T15:56:23.883Z,14.42
2023-10-26T15:58:53.990Z,14.41
2023-10-26T16:01:22.737Z,14.37
2023-10-26T16:03:50.961Z,14.34
2023-10-26T16:06:20.169Z,14.33
2023-10-26T16:08:50.605Z,14.29
2023-10-26T16:11:18.810Z,14.24
2023-10-26T16:13:48.058Z,14.18
2023-10-26T16:16:16.595Z,14.15
2023-10-26T16:18:47.969Z,14.11
2023-10-26T16:21:16.840Z,14.07
2023-10-26T16:23:45.528Z,14.00
2023-10-26T16:26:15.987Z,13.99
2023-10-26T16:28:45.068Z,13.89
2023-10-26T16:31:14.575Z,13.89
2023-10-26T16:33:42.964Z,13.91
2023-10-26T16:36:11.761Z,13.91
2023-10-26T16:38:41.212Z,13.90
2023-10-26T16:41:09.602Z,13.85
2023-10-26T16:43:40.764Z,13.82
2023-10-26T16:46:13.341Z,13.88
2023-10-26T16:48:44.210Z,13.96
2023-10-26T16:51:12.475Z,13.95
2023-10-26T16:53:41.744Z,14.02
2023-10-26T16:56:11.801Z,14.11
2023-10-26T16:58:43.003Z,14.14
2023-10-26T17:01:12.687Z,14.22
2023-10-26T17:03:41.891Z,14.25
2023-10-26T17:06:12.092Z,14.26
2023-10-26T17:08:43.457Z,14.22
2023-10-26T17:11:13.286Z,14.30
2023-10-26T17:13:45.563Z,14.35
2023-10-26T17:16:15.178Z,14.42
2023-10-26T17:18:44.618Z,14.51
2023-10-26T17:21:13.665Z,14.55
2023-10-26T17:23:43.579Z,14.65
2023-10-26T17:26:16.348Z,14.67
2023-10-26T17:28:51.300Z,14.68
2023-10-26T17:31:20.242Z,14.65
2023-10-26T17:33:52.875Z,14.64
2023-10-26T17:36:21.493Z,14.61
2023-10-26T17:38:51.537Z,14.59
2023-10-26T17:41:21.056Z,14.60
2023-10-26T17:43:51.281Z,14.50
2023-10-26T17:46:22.265Z,14.44
2023-10-26T17:48:53.437Z,14.36
2023-10-26T17:51:22.687Z,14.34
2023-10-26T17:53:56.084Z,14.27
2023-10-26T17:56:28.474Z,14.28
2023-10-26T17:59:00.117Z,14.23
2023-10-26T18:01:30.139Z,14.25
2023-10-26T18:04:00.868Z,14.25
2023-10-26T18:06:35.424Z,14.25
2023-10-26T18:09:05.018Z,14.23
2023-10-26T18:11:35.191Z,14.26
2023-10-26T18:14:08.568Z,14.28
2023-10-26T18:16:55.397Z,14.31
2023-10-26T18:19:27.308Z,14.30
2023-10-26T18:21:56.884Z,14.25
2023-10-26T18:24:27.925Z,14.23
2023-10-26T18:26:59.133Z,14.28
2023-10-26T18:29:30.168Z,14.27
2023-10-26T18:32:02.870Z,14.27
2023-10-26T18:34:35.851Z,14.27
2023-10-26T18:37:05.240Z,14.29
2023-10-26T18:39:34.414Z,14.28
2023-10-26T18:42:05.443Z,14.24
2023-10-26T18:44:37.000Z,14.29
2023-10-26T18:47:06.714Z,14.33
2023-10-26T18:49:40.006Z,14.31
2023-10-26T18:52:10.038Z,14.35
2023-10-26T18:54:39.723Z,14.32
2023-10-26T18:57:11.697Z,14.33
2023-10-26T18:59:46.677Z,14.34
2023-10-26T19:02:18.606Z,14.35
2023-10-26T19:04:48.722Z,14.34
2023-10-26T19:07:23.966Z,14.30
2023-10-26T19:09:53.743Z,14.14
2023-10-26T19:12:23.785Z,14.02
2023-10-26T19:14:56.992Z,13.93
2023-10-26T19:17:28.264Z,13.85
2023-10-26T19:19:58.134Z,13.63
2023-10-26T19:22:29.466Z,13.57
2023-10-26T19:24:59.850Z,13.46
2023-10-26T19:27:29.601Z,13.37
2023-10-26T19:30:01.741Z,13.25
2023-10-26T19:32:33.660Z,13.20
2023-10-26T19:35:08.084Z,13.17
2023-10-26T19:37:39.852Z,13.10
2023-10-26T19:40:11.912Z,13.08
2023-10-26T19:42:43.607Z,13.05
2023-10-26T19:45:17.262Z,12.94
2023-10-26T19:47:48.346Z,12.82
2023-10-26T19:50:23.865Z,12.79
2023-10-26T19:52:54.226Z,12.80
2023-10-26T19:55:25.589Z,12.74
2023-10-26T19:57:58.072Z,12.65
2023-10-26T20:00:30.559Z,12.61
2023-10-26T20:03:02.326Z,12.57
2023-10-26T20:05:33.243Z,12.57
2023-10-26T20:08:03.963Z,12.59
2023-10-26T20:10:35.709Z,12.61
2023-10-26T20:13:08.206Z,12.63
2023-10-26T20:15:40.585Z,12.61
2023-10-26T20:18:13.231Z,12.62
2023-10-26T20:20:42.874Z,12.65
2023-10-26T20:23:13.258Z,12.65
2023-10-26T20:25:42.953Z,12.56
2023-10-26T20:28:15.833Z,12.38
2023-10-26T20:30:48.483Z,12.33
2023-10-26T20:33:19.207Z,12.27
2023-10-26T20:35:53.140Z,12.18
2023-10-26T20:38:22.660Z,12.17
2023-10-26T20:40:52.417Z,12.06
2023-10-26T20:43:21.265Z,12.06
2023-10-26T20:45:56.979Z,11.96
2023-10-26T20:48:26.469Z,11.91
2023-10-26T20:50:57.951Z,11.86
2023-10-26T20:53:30.630Z,11.80
2023-10-26T20:56:02.711Z,11.78
2023-10-26T20:58:33.095Z,11.75
2023-10-26T21:01:03.293Z,11.72
2023-10-26T21:03:34.338Z,11.67
2023-10-26T21:06:06.120Z,11.63
2023-10-26T21:08:34.473Z,11.60
2023-10-26T21:11:03.036Z,11.61
2023-10-26T21:13:35.004Z,11.63
2023-10-26T21:16:04.991Z,11.63
2023-10-26T21:18:33.295Z,11.75
2023-10-26T21:21:06.981Z,11.88
2023-10-26T21:23:36.543Z,11.98
2023-10-26T21:26:06.418Z,12.21
2023-10-26T21:28:35.374Z,12.39
2023-10-26T21:31:08.721Z,12.48
2023-10-26T21:33:37.092Z,12.51
2023-10-26T21:36:08.717Z,12.53
2023-10-26T21:38:36.912Z,12.50
2023-10-26T21:41:06.534Z,12.44
2023-10-26T21:43:35.348Z,12.36
2023-10-26T21:46:08.946Z,12.30
2023-10-26T21:48:37.300Z,12.22
2023-10-26T21:51:12.351Z,12.24
2023-10-26T21:53:40.706Z,12.18
2023-10-26T21:56:09.081Z,12.13
2023-10-26T21:58:37.820Z,12.01
2023-10-26T22:01:10.146Z,11.89
2023-10-26T22:03:39.106Z,11.85
2023-10-26T22:06:07.516Z,11.84
2023-10-26T22:08:35.728Z,11.85
2023-10-26T22:11:03.842Z,11.84
2023-10-26T22:13:32.268Z,11.82
2023-10-26T22:16:00.664Z,11.79
2023-10-26T22:18:30.341Z,11.78
2023-10-26T22:21:02.880Z,11.87
2023-10-26T22:23:31.037Z,11.84
2023-10-26T22:25:59.957Z,11.76
2023-10-26T22:28:28.184Z,11.70
2023-10-26T22:30:56.399Z,11.67
2023-10-26T22:33:25.907Z,11.65
2023-10-26T22:35:55.384Z,11.65
2023-10-26T22:38:23.585Z,11.65
2023-10-26T22:40:51.677Z,11.66
2023-10-26T22:43:19.920Z,11.66
2023-10-26T22:45:48.079Z,11.67
2023-10-26T22:48:16.312Z,11.66
2023-10-26T22:50:44.459Z,11.65
2023-10-26T22:53:13.985Z,11.63
2023-10-26T22:55:42.200Z,11.58
2023-10-26T22:58:10.373Z,11.54
2023-10-26T23:00:38.618Z,11.50
2023-10-26T23:03:06.757Z,11.50
2023-10-26T23:05:35.420Z,11.52
2023-10-26T23:08:04.771Z,11.48
2023-10-26T23:10:34.290Z,11.48
2023-10-26T23:13:02.541Z,11.48
2023-10-26T23:15:30.782Z,11.47
2023-10-26T23:17:58.994Z,11.53
2023-10-26T23:20:27.216Z,11.56
2023-10-26T23:22:55.413Z,11.58
2023-10-26T23:25:24.658Z,11.57
2023-10-26T23:27:54.250Z,11.62
2023-10-26T23:30:22.631Z,11.62
2023-10-26T23:32:52.033Z,11.65
2023-10-26T23:35:20.329Z,11.65
2023-10-26T23:37:48.427Z,11.67
2023-10-26T23:40:16.862Z,11.63
2023-10-26T23:42:45.050Z,11.65
2023-10-26T23:45:14.709Z,11.65
2023-10-26T23:47:42.897Z,11.67
2023-10-26T23:50:11.716Z,11.72
2023-10-26T23:52:39.887Z,11.75
2023-10-26T23:55:08.995Z,11.75
2023-10-26T23:57:37.345Z,11.78
